Time;durP1;ratioP1;P1;durP2;ratioP2;P2;SDS_P1;SDS_P2;PMS_P1;PMS_P2;Temp;Humidity;BMP_temperature;BMP_pressure;BME280_temperature;BME280_humidity;BME280_pressure;Samples;Min_cycle;Max_cycle;Signal;HPM_P1;HPM_P2
2022/09/06 00:01:24;;;;;;;9.77;5.30;;;20.60;99.90;;;;;;5076276;28;20451;-69
2022/09/06 00:03:50;;;;;;;10.10;5.18;;;20.70;99.90;;;;;;5058880;28;20032;-69
2022/09/06 00:06:18;;;;;;;9.10;5.30;;;20.60;99.90;;;;;;5076824;28;20093;-69
2022/09/06 00:08:45;;;;;;;7.85;4.45;;;20.50;99.90;;;;;;5058203;28;20393;-69
2022/09/06 00:11:11;;;;;;;8.80;4.75;;;20.70;99.90;;;;;;5078405;28;20031;-69
2022/09/06 00:13:37;;;;;;;8.25;4.32;;;20.60;99.90;;;;;;5078149;28;20027;-69
2022/09/06 00:16:08;;;;;;;10.10;4.38;;;20.60;99.90;;;;;;5058339;28;20051;-69
2022/09/06 00:18:35;;;;;;;8.13;4.70;;;20.50;99.90;;;;;;5058095;28;20037;-69
2022/09/06 00:21:00;;;;;;;;;;;20.80;99.90;;;;;;5058379;28;20481;-70
2022/09/06 00:23:26;;;;;;;9.63;4.90;;;20.90;99.90;;;;;;5075552;28;19908;-69
2022/09/06 00:25:51;;;;;;;6.85;4.68;;;20.80;99.90;;;;;;5075651;28;20037;-70
2022/09/06 00:28:18;;;;;;;9.73;4.53;;;20.60;99.90;;;;;;5075544;28;20035;-70
2022/09/06 00:30:43;;;;;;;;;;;20.50;99.90;;;;;;5076086;28;20017;-70
2022/09/06 00:33:09;;;;;;;8.43;4.68;;;20.40;99.90;;;;;;5057720;28;19904;-70
2022/09/06 00:35:34;;;;;;;6.72;3.75;;;20.40;99.90;;;;;;5076367;28;20036;-70
2022/09/06 00:38:01;;;;;;;6.50;3.95;;;20.50;99.90;;;;;;5058971;28;20040;-70
2022/09/06 00:40:28;;;;;;;7.78;4.40;;;20.40;99.90;;;;;;5057613;28;20028;-70
2022/09/06 00:42:57;;;;;;;8.93;3.75;;;20.20;99.90;;;;;;5075290;28;20054;-70
2022/09/06 00:45:26;;;;;;;7.88;4.13;;;20.30;99.90;;;;;;5059063;28;20024;-70
2022/09/06 00:47:52;;;;;;;8.68;4.03;;;20.20;99.90;;;;;;5058627;28;20024;-70
2022/09/06 00:50:18;;;;;;;9.48;4.00;;;20.20;99.90;;;;;;5075720;28;20046;-70
2022/09/06 00:52:46;;;;;;;7.97;4.63;;;20.40;99.90;;;;;;5075075;28;20029;-70
2022/09/06 00:55:12;;;;;;;6.10;4.03;;;20.40;99.90;;;;;;5074989;28;20099;-69
2022/09/06 00:57:38;;;;;;;11.18;4.65;;;20.50;99.90;;;;;;5057003;28;20058;-69
2022/09/06 01:00:07;;;;;;;5.70;3.88;;;20.40;99.90;;;;;;5074930;28;20028;-70
2022/09/06 01:02:33;;;;;;;6.60;4.60;;;20.30;99.90;;;;;;5057170;28;20039;-70
2022/09/06 01:04:59;;;;;;;9.18;4.30;;;20.20;99.90;;;;;;5074892;28;20032;-70
2022/09/06 01:07:45;;;;;;;7.05;4.25;;;20.40;99.90;;;;;;5074854;28;20123;-70
2022/09/06 01:10:27;;;;;;;6.70;3.97;;;20.40;99.90;;;;;;5075079;28;20025;-69
2022/09/06 01:12:58;;;;;;;6.85;3.80;;;20.40;99.90;;;;;;5074817;28;20051;-70
2022/09/06 01:15:53;;;;;;;9.00;4.10;;;20.40;99.90;;;;;;5057048;28;20017;-69
2022/09/06 01:18:25;;;;;;;6.70;4.53;;;20.30;99.90;;;;;;5080835;28;20048;-69
2022/09/06 01:21:21;;;;;;;8.02;4.00;;;20.20;99.90;;;;;;5074865;28;20021;-69
2022/09/06 01:24:17;;;;;;;8.02;3.78;;;20.20;99.90;;;;;;5074375;28;20054;-70
2022/09/06 01:27:20;;;;;;;6.20;3.95;;;20.30;99.90;;;;;;5074154;28;20025;-70
2022/09/06 01:30:06;;;;;;;6.80;3.80;;;20.40;99.90;;;;;;5056216;28;20033;-69
2022/09/06 01:32:55;;;;;;;6.80;4.28;;;20.50;99.90;;;;;;5074570;28;20066;-70
2022/09/06 01:35:33;;;;;;;8.10;4.07;;;20.40;99.90;;;;;;5056388;28;20544;-70
2022/09/06 01:38:00;;;;;;;5.28;4.15;;;20.20;99.90;;;;;;5056152;28;20552;-69
2022/09/06 01:40:27;;;;;;;7.03;4.10;;;20.20;99.90;;;;;;5056109;28;20109;-70
2022/09/06 01:42:53;;;;;;;6.97;3.92;;;20.10;99.90;;;;;;5056168;28;20026;-70
2022/09/06 01:45:30;;;;;;;5.97;3.92;;;20.20;99.90;;;;;;5074377;28;20415;-69
2022/09/06 01:48:28;;;;;;;5.43;3.97;;;20.30;99.90;;;;;;5074111;28;20055;-70
2022/09/06 01:51:24;;;;;;;7.70;4.30;;;20.10;99.90;;;;;;5068996;28;20028;-70
2022/09/06 01:54:30;;;;;;;7.20;4.78;;;19.90;99.90;;;;;;5073685;28;20381;-70
2022/09/06 01:57:22;;;;;;;6.68;4.20;;;19.80;99.90;;;;;;5051835;28;20519;-70
2022/09/06 02:00:08;;;;;;;7.43;4.40;;;19.90;99.90;;;;;;5073768;28;20029;-70
2022/09/06 02:02:39;;;;;;;7.72;4.97;;;20.10;99.90;;;;;;5073748;28;20039;-70
2022/09/06 02:05:15;;;;;;;6.63;4.53;;;19.80;99.90;;;;;;5073775;28;20020;-70
2022/09/06 02:07:43;;;;;;;8.73;4.72;;;19.70;99.90;;;;;;5073669;28;20082;-70
2022/09/06 02:10:30;;;;;;;7.15;4.40;;;19.50;99.90;;;;;;5073831;28;20027;-70
2022/09/06 02:13:00;;;;;;;7.60;4.15;;;19.50;99.90;;;;;;5055667;28;20016;-70
2022/09/06 02:15:30;;;;;;;6.22;4.30;;;19.70;99.90;;;;;;5055755;28;20524;-70
2022/09/06 02:18:01;;;;;;;6.47;3.88;;;19.70;99.90;;;;;;5073593;28;20042;-70
2022/09/06 02:20:30;;;;;;;6.22;3.80;;;19.90;99.90;;;;;;5055632;28;20017;-70
2022/09/06 02:23:01;;;;;;;5.32;3.90;;;19.90;99.90;;;;;;5055700;28;20481;-70
2022/09/06 02:25:32;;;;;;;5.95;4.30;;;20.10;99.90;;;;;;5073817;28;20036;-70
2022/09/06 02:27:58;;;;;;;12.30;4.63;;;20.30;99.90;;;;;;5073647;28;20028;-70
2022/09/06 02:30:24;;;;;;;7.00;4.40;;;20.50;99.90;;;;;;5073388;28;20388;-70
2022/09/06 02:32:56;;;;;;;7.53;4.72;;;20.60;99.90;;;;;;5055477;28;20032;-70
2022/09/06 02:35:23;;;;;;;7.07;4.45;;;20.50;99.90;;;;;;5055640;28;20021;-70
2022/09/06 02:37:49;;;;;;;8.90;5.00;;;20.50;99.90;;;;;;5057070;28;20060;-70
2022/09/06 02:40:14;;;;;;;5.72;4.28;;;20.40;99.90;;;;;;5078556;28;20059;-70
2022/09/06 02:42:40;;;;;;;11.07;4.45;;;20.20;99.90;;;;;;5073710;28;20032;-70
2022/09/06 02:45:07;;;;;;;7.57;4.88;;;20.40;99.90;;;;;;5073670;28;20103;-70
2022/09/06 02:47:32;;;;;;;8.18;4.35;;;20.10;99.90;;;;;;5054969;28;20120;-70
2022/09/06 02:49:58;;;;;;;6.80;4.10;;;20.00;99.90;;;;;;5073132;28;20048;-70
2022/09/06 02:52:23;;;;;;;6.03;4.03;;;20.00;99.90;;;;;;5073196;28;20389;-70
2022/09/06 02:54:49;;;;;;;7.45;4.80;;;20.20;99.90;;;;;;5073183;28;20358;-70
2022/09/06 02:57:14;;;;;;;12.82;4.88;;;20.20;99.90;;;;;;5055060;28;20029;-70
2022/09/06 02:59:40;;;;;;;7.55;4.72;;;20.20;99.90;;;;;;5073631;28;20052;-69
2022/09/06 03:02:05;;;;;;;6.57;4.15;;;20.20;99.90;;;;;;5073608;28;20032;-70
2022/09/06 03:04:31;;;;;;;6.43;4.50;;;20.00;99.90;;;;;;5074127;28;20077;-70
2022/09/06 03:06:57;;;;;;;7.43;4.45;;;20.30;99.90;;;;;;5076084;28;20073;-70
2022/09/06 03:09:23;;;;;;;7.45;4.40;;;20.20;99.90;;;;;;5059962;28;20020;-70
2022/09/06 03:11:49;;;;;;;5.50;4.53;;;20.10;99.90;;;;;;5077793;28;20021;-70
2022/09/06 03:14:15;;;;;;;10.27;4.93;;;19.90;99.90;;;;;;5059977;28;20358;-70
2022/09/06 03:16:41;;;;;;;11.32;4.85;;;19.70;99.90;;;;;;5059041;28;20112;-70
2022/09/06 03:19:07;;;;;;;7.55;4.60;;;19.80;99.90;;;;;;5077070;28;20135;-69
2022/09/06 03:21:33;;;;;;;8.02;5.22;;;19.80;99.90;;;;;;5076616;28;20032;-70
2022/09/06 03:23:58;;;;;;;8.00;4.75;;;19.70;99.90;;;;;;5076643;28;20032;-69
2022/09/06 03:26:24;;;;;;;8.00;4.20;;;19.50;99.90;;;;;;5058747;28;20035;-69
2022/09/06 03:28:50;;;;;;;9.32;5.03;;;19.40;99.90;;;;;;5081600;28;20025;-69
2022/09/06 03:31:16;;;;;;;10.20;4.43;;;19.60;99.90;;;;;;5082857;28;20032;-69
2022/09/06 03:33:41;;;;;;;6.75;4.15;;;19.90;99.90;;;;;;5058758;28;20021;-70
2022/09/06 03:36:07;;;;;;;8.05;5.00;;;19.90;99.90;;;;;;5058522;28;20033;-70
2022/09/06 03:38:33;;;;;;;11.23;4.85;;;19.70;99.90;;;;;;5059446;28;20488;-69
2022/09/06 03:40:59;;;;;;;7.68;4.45;;;19.60;99.90;;;;;;5076907;28;20033;-69
2022/09/06 03:43:26;;;;;;;9.30;5.53;;;19.40;99.90;;;;;;5061874;28;20358;-68
2022/09/06 03:45:53;;;;;;;7.97;5.25;;;19.30;99.90;;;;;;5077207;28;20033;-68
2022/09/06 03:48:21;;;;;;;6.93;4.47;;;19.30;99.90;;;;;;5078897;28;20078;-68
2022/09/06 03:50:49;;;;;;;17.00;5.20;;;19.50;99.90;;;;;;5076649;28;20086;-69
2022/09/06 03:53:16;;;;;;;13.07;5.28;;;19.70;99.90;;;;;;5058771;28;20050;-68
2022/09/06 03:55:45;;;;;;;8.35;5.05;;;19.70;99.90;;;;;;5076299;28;20025;-68
2022/09/06 03:58:11;;;;;;;9.13;4.90;;;20.00;99.90;;;;;;5076219;28;20028;-69
2022/09/06 04:00:37;;;;;;;8.07;4.28;;;19.90;99.90;;;;;;5058159;28;20496;-69
2022/09/06 04:03:02;;;;;;;6.35;4.47;;;19.90;99.90;;;;;;5076172;28;20032;-68
2022/09/06 04:05:28;;;;;;;7.65;4.38;;;19.70;99.90;;;;;;5076048;28;20064;-68
2022/09/06 04:07:53;;;;;;;9.02;4.53;;;19.70;99.90;;;;;;5058397;28;20056;-68
2022/09/06 04:10:19;;;;;;;5.50;4.65;;;19.80;99.90;;;;;;5076234;28;20020;-68
2022/09/06 04:12:45;;;;;;;7.40;4.53;;;19.40;99.90;;;;;;5058066;28;20028;-68
2022/09/06 04:15:10;;;;;;;6.35;4.82;;;19.80;99.90;;;;;;5078828;28;20075;-68
2022/09/06 04:17:36;;;;;;;6.00;4.80;;;19.80;99.90;;;;;;5076818;28;20036;-68
2022/09/06 04:20:03;;;;;;;8.13;4.72;;;19.80;99.90;;;;;;5077136;28;20142;-69
2022/09/06 04:22:29;;;;;;;7.05;4.65;;;19.60;99.90;;;;;;5059989;28;20102;-69
2022/09/06 04:24:54;;;;;;;7.85;5.18;;;19.80;99.90;;;;;;5076191;28;20025;-69
2022/09/06 04:27:20;;;;;;;7.10;4.95;;;19.80;99.90;;;;;;5058250;28;20052;-69
2022/09/06 04:29:45;;;;;;;6.30;4.90;;;19.60;99.90;;;;;;5075833;28;20028;-69
2022/09/06 04:32:11;;;;;;;7.80;4.40;;;19.60;99.90;;;;;;5059586;28;20029;-70
2022/09/06 04:34:37;;;;;;;7.25;4.50;;;19.50;99.90;;;;;;5077211;28;20095;-70
2022/09/06 04:37:02;;;;;;;6.65;4.68;;;19.50;99.90;;;;;;5092238;22;20041;-72
2022/09/06 04:39:28;;;;;;;4.97;4.43;;;19.50;99.90;;;;;;5054918;28;20032;-71
2022/09/06 04:41:53;;;;;;;5.50;4.43;;;19.80;99.90;;;;;;5055566;28;20075;-71
2022/09/06 04:44:19;;;;;;;8.07;5.45;;;19.70;99.90;;;;;;5037404;28;20056;-71
2022/09/06 04:46:44;;;;;;;12.55;4.88;;;19.80;99.90;;;;;;5058537;28;20028;-71
2022/09/06 04:49:10;;;;;;;5.38;4.50;;;19.70;99.90;;;;;;5056900;28;20029;-71
2022/09/06 04:51:38;;;;;;;6.72;4.68;;;19.80;99.90;;;;;;5074991;28;20647;-71
2022/09/06 04:54:03;;;;;;;6.82;4.90;;;19.90;99.90;;;;;;5074056;28;20472;-72
2022/09/06 04:56:29;;;;;;;7.45;4.70;;;19.90;99.90;;;;;;5054351;28;20035;-71
2022/09/06 04:58:55;;;;;;;6.32;4.85;;;19.90;99.90;;;;;;5072409;28;20138;-72
2022/09/06 05:01:20;;;;;;;22.65;20.55;;;19.90;99.90;;;;;;5073631;28;20108;-71
2022/09/06 05:03:46;;;;;;;7.78;5.00;;;19.60;99.90;;;;;;5055998;28;20495;-71
2022/09/06 05:06:21;;;;;;;11.38;4.75;;;19.60;99.90;;;;;;5055584;28;20039;-71
2022/09/06 05:08:47;;;;;;;9.15;4.45;;;19.70;99.90;;;;;;5055644;28;20028;-71
2022/09/06 05:11:12;;;;;;;6.05;4.35;;;19.90;99.90;;;;;;5073824;28;20063;-71
2022/09/06 05:13:38;;;;;;;7.38;4.75;;;20.10;99.90;;;;;;5056669;28;20021;-71
2022/09/06 05:16:06;;;;;;;10.07;4.90;;;20.10;99.90;;;;;;5073758;28;20032;-71
2022/09/06 05:18:32;;;;;;;7.40;4.95;;;20.10;99.90;;;;;;5073352;28;20074;-72
2022/09/06 05:20:58;;;;;;;6.25;4.88;;;20.10;99.90;;;;;;5055548;28;20032;-71
2022/09/06 05:23:24;;;;;;;7.55;5.10;;;20.20;99.90;;;;;;5056078;28;20035;-71
2022/09/06 05:25:49;;;;;;;7.53;5.00;;;20.00;99.90;;;;;;5056116;28;20115;-71
2022/09/06 05:28:15;;;;;;;6.22;4.70;;;20.00;99.90;;;;;;5073662;28;20098;-71
2022/09/06 05:30:41;;;;;;;;;;;19.70;99.90;;;;;;5074591;28;20048;-71
2022/09/06 05:33:11;;;;;;;8.00;5.07;;;19.60;99.90;;;;;;5074324;28;20273;-72
2022/09/06 05:35:37;;;;;;;8.00;4.80;;;19.70;99.90;;;;;;5055688;28;20025;-69
2022/09/06 05:38:03;;;;;;;11.20;5.20;;;20.00;99.90;;;;;;5073328;28;20033;-69
2022/09/06 05:40:29;;;;;;;12.80;5.65;;;20.20;99.90;;;;;;5073455;28;20438;-69
2022/09/06 05:42:55;;;;;;;;;;;20.10;99.90;;;;;;5073905;28;20024;-70
2022/09/06 05:45:20;;;;;;;8.20;5.05;;;20.10;99.90;;;;;;5056701;28;19927;-74
2022/09/06 05:47:46;;;;;;;8.20;5.53;;;20.30;99.90;;;;;;5055941;28;20123;-71
2022/09/06 05:50:12;;;;;;;6.72;5.45;;;20.00;99.90;;;;;;5073685;28;20035;-70
2022/09/06 05:52:38;;;;;;;8.18;5.28;;;19.90;99.90;;;;;;5073517;28;20024;-70
2022/09/06 05:55:04;;;;;;;;;;;19.90;99.90;;;;;;5056366;28;20477;-70
2022/09/06 05:57:30;;;;;;;9.40;5.28;;;20.00;99.90;;;;;;5055316;28;20474;-70
2022/09/06 05:59:55;;;;;;;8.32;4.53;;;19.90;99.90;;;;;;5073210;28;20055;-71
2022/09/06 06:02:22;;;;;;;9.75;4.80;;;19.90;99.90;;;;;;5055269;28;20120;-71
2022/09/06 06:04:48;;;;;;;11.60;4.72;;;20.00;99.90;;;;;;5073303;28;20504;-70
2022/09/06 06:07:13;;;;;;;;;;;20.20;99.90;;;;;;5073544;28;20036;-70
2022/09/06 06:09:39;;;;;;;6.05;4.90;;;20.30;99.90;;;;;;5073450;28;19904;-69
2022/09/06 06:12:06;;;;;;;9.40;5.40;;;20.30;99.90;;;;;;5073118;28;20025;-70
2022/09/06 06:14:31;;;;;;;;;;;20.40;99.90;;;;;;5055992;28;20028;-70
2022/09/06 06:16:57;;;;;;;7.07;4.97;;;20.50;99.90;;;;;;5073094;28;20376;-70
2022/09/06 06:19:22;;;;;;;7.97;5.15;;;20.60;99.90;;;;;;5073093;28;20489;-70
2022/09/06 06:21:48;;;;;;;7.50;5.32;;;20.80;99.90;;;;;;5073409;28;20126;-70
2022/09/06 06:24:14;;;;;;;9.10;6.18;;;20.90;99.90;;;;;;5055274;28;20029;-71
2022/09/06 06:26:39;;;;;;;9.98;6.65;;;20.90;99.90;;;;;;5055190;28;20119;-70
2022/09/06 06:29:08;;;;;;;7.32;5.43;;;21.10;99.90;;;;;;5056092;28;20025;-72
2022/09/06 06:31:35;;;;;;;10.20;5.43;;;21.40;99.90;;;;;;5073403;28;20036;-72
2022/09/06 06:34:03;;;;;;;9.23;4.93;;;21.40;99.90;;;;;;5055120;28;20028;-71
2022/09/06 06:36:32;;;;;;;7.68;4.75;;;21.40;99.90;;;;;;5074817;28;20025;-71
2022/09/06 06:38:59;;;;;;;7.00;5.32;;;21.40;99.90;;;;;;5056117;28;20063;-73
2022/09/06 06:41:30;;;;;;;7.18;4.90;;;21.50;99.90;;;;;;5056548;28;20036;-73
2022/09/06 06:44:01;;;;;;;7.43;5.25;;;21.50;99.90;;;;;;5073778;28;20029;-73
2022/09/06 06:46:35;;;;;;;11.05;5.80;;;21.50;99.90;;;;;;5073739;28;20074;-73
2022/09/06 06:49:01;;;;;;;10.13;5.25;;;21.40;99.90;;;;;;5073087;28;20412;-72
2022/09/06 06:51:29;;;;;;;11.23;5.32;;;21.40;99.90;;;;;;5072774;28;20023;-72
2022/09/06 06:53:55;;;;;;;8.63;5.55;;;21.20;99.90;;;;;;5055788;28;20047;-72
2022/09/06 06:56:28;;;;;;;9.00;5.32;;;21.20;99.90;;;;;;5056390;28;20107;-73
2022/09/06 06:58:57;;;;;;;11.73;5.25;;;21.30;99.90;;;;;;5058414;28;20033;-73
2022/09/06 07:01:25;;;;;;;7.40;4.82;;;21.40;99.90;;;;;;5072645;28;20078;-73
2022/09/06 07:03:51;;;;;;;10.63;4.95;;;21.50;99.90;;;;;;5054775;28;20147;-72
2022/09/06 07:06:18;;;;;;;7.00;4.38;;;21.70;99.90;;;;;;5072689;28;20059;-72
2022/09/06 07:08:44;;;;;;;7.85;5.00;;;21.80;99.90;;;;;;5054284;28;20502;-70
2022/09/06 07:11:11;;;;;;;9.95;4.72;;;22.00;99.90;;;;;;5054450;28;20473;-71
2022/09/06 07:13:37;;;;;;;6.80;4.30;;;22.10;99.90;;;;;;5072363;28;20028;-70
2022/09/06 07:16:20;;;;;;;7.07;4.50;;;22.20;99.90;;;;;;5054642;28;20047;-69
2022/09/06 07:18:49;;;;;;;5.68;4.45;;;22.30;99.90;;;;;;5072270;28;20108;-68
2022/09/06 07:21:16;;;;;;;7.13;4.63;;;22.30;99.90;;;;;;5072512;28;20033;-68
2022/09/06 07:23:42;;;;;;;5.95;4.60;;;22.10;99.90;;;;;;5072567;28;20416;-68
2022/09/06 07:26:13;;;;;;;;;;;22.20;99.90;;;;;;5054644;28;20124;-68
2022/09/06 07:28:38;;;;;;;7.10;4.57;;;22.40;99.90;;;;;;5072035;28;19958;-69
2022/09/06 07:31:04;;;;;;;8.80;4.57;;;22.40;99.90;;;;;;5072188;28;20025;-73
2022/09/06 07:33:30;;;;;;;9.32;4.85;;;22.50;99.90;;;;;;5054722;28;20062;-69
2022/09/06 07:36:00;;;;;;;7.07;4.72;;;22.40;99.90;;;;;;5072116;28;20473;-69
2022/09/06 07:38:28;;;;;;;9.88;5.03;;;22.40;99.90;;;;;;5072045;28;20463;-71
2022/09/06 07:40:56;;;;;;;9.13;5.32;;;22.50;99.90;;;;;;5054174;28;20028;-71
2022/09/06 07:43:22;;;;;;;10.48;4.85;;;22.80;99.90;;;;;;5054049;28;20546;-71
2022/09/06 07:45:48;;;;;;;13.35;5.88;;;23.00;99.90;;;;;;5054247;28;20040;-71
2022/09/06 07:48:14;;;;;;;7.57;5.00;;;23.30;99.90;;;;;;5071952;28;20032;-72
2022/09/06 07:50:39;;;;;;;10.43;4.28;;;23.60;99.90;;;;;;5054801;28;20028;-73
2022/09/06 07:53:05;;;;;;;;;;;23.80;99.90;;;;;;5073439;28;20503;-73
2022/09/06 07:55:31;;;;;;;9.43;4.68;;;23.80;99.90;;;;;;5057594;28;19952;-73
2022/09/06 07:57:56;;;;;;;;;;;23.90;99.90;;;;;;5075773;28;20025;-72
2022/09/06 08:00:22;;;;;;;7.05;4.47;;;24.10;99.90;;;;;;5075274;28;19949;-73
2022/09/06 08:02:47;;;;;;;;;;;23.90;99.90;;;;;;5058265;28;20024;-72
2022/09/06 08:05:13;;;;;;;16.35;5.50;;;24.10;99.90;;;;;;5057401;28;19916;-72
2022/09/06 08:07:38;;;;;;;10.05;5.75;;;24.20;99.90;;;;;;5057011;28;20043;-72
2022/09/06 08:10:05;;;;;;;9.02;5.38;;;23.90;99.90;;;;;;5057204;28;20025;-72
2022/09/06 08:12:30;;;;;;;;;;;23.90;99.90;;;;;;5075657;28;20107;-72
2022/09/06 08:14:56;;;;;;;7.93;5.25;;;24.00;99.90;;;;;;5075755;28;19936;-72
2022/09/06 08:17:21;;;;;;;9.95;5.13;;;24.20;99.90;;;;;;5057288;28;20024;-72
2022/09/06 08:19:48;;;;;;;;;;;24.10;99.90;;;;;;5076056;28;20029;-71
2022/09/06 08:22:13;;;;;;;9.48;4.95;;;24.20;99.90;;;;;;5075386;28;19905;-74
2022/09/06 08:24:39;;;;;;;10.90;5.68;;;24.40;99.90;;;;;;5057179;28;20024;-73
2022/09/06 08:27:06;;;;;;;;;;;24.60;99.90;;;;;;5057708;28;20065;-73
2022/09/06 08:29:33;;;;;;;8.98;5.07;;;24.70;99.90;;;;;;5057338;28;19951;-72
2022/09/06 08:31:58;;;;;;;9.13;5.35;;;24.90;99.90;;;;;;5075519;28;20036;-73
2022/09/06 08:34:24;;;;;;;;;;;25.00;99.90;;;;;;5076375;28;20028;-73
2022/09/06 08:36:49;;;;;;;11.57;5.53;;;24.90;99.90;;;;;;5058261;28;19913;-73
2022/09/06 08:39:15;;;;;;;;;;;25.10;99.90;;;;;;5058195;28;20499;-73
2022/09/06 08:42:01;;;;;;;7.68;5.22;;;25.10;99.90;;;;;;5058913;28;19932;-71
2022/09/06 08:44:43;;;;;;;7.47;5.33;;;25.20;99.90;;;;;;5057143;28;20027;-73
2022/09/06 08:47:11;;;;;;;10.85;5.47;;;25.30;99.90;;;;;;5056301;28;20016;-71
2022/09/06 08:49:40;;;;;;;8.15;5.13;;;26.80;99.90;;;;;;5074137;28;20562;-71
2022/09/06 08:52:22;;;;;;;5.63;4.30;;;30.30;99.90;;;;;;5056425;28;20158;-70
2022/09/06 08:54:59;;;;;;;11.18;4.10;;;33.80;95.70;;;;;;5074261;28;20028;-70
2022/09/06 08:57:48;;;;;;;4.97;4.00;;;36.80;90.40;;;;;;5056226;28;20056;-70
2022/09/06 09:00:14;;;;;;;8.73;4.03;;;38.40;82.80;;;;;;5074935;28;20025;-71
2022/09/06 09:02:56;;;;;;;7.82;4.13;;;39.60;76.90;;;;;;5056506;28;20424;-71
2022/09/06 09:05:25;;;;;;;5.18;3.53;;;39.90;73.30;;;;;;5073815;28;20047;-70
2022/09/06 09:08:09;;;;;;;5.43;3.63;;;39.80;71.00;;;;;;5074281;28;20025;-71
2022/09/06 09:10:45;;;;;;;6.00;3.70;;;40.70;68.30;;;;;;5075077;28;20103;-71
2022/09/06 09:13:22;;;;;;;;;;;41.20;66.90;;;;;;5057175;28;20043;-70
2022/09/06 09:15:48;;;;;;;7.22;3.75;;;41.10;65.70;;;;;;5074783;28;19916;-72
2022/09/06 09:18:20;;;;;;;5.30;3.70;;;40.50;65.50;;;;;;5074557;28;20138;-71
2022/09/06 09:20:45;;;;;;;7.65;3.50;;;40.90;65.50;;;;;;5056183;28;20490;-71
2022/09/06 09:23:11;;;;;;;7.72;4.65;;;41.70;64.30;;;;;;5073958;28;20029;-71
2022/09/06 09:25:38;;;;;;;6.07;3.92;;;42.70;63.20;;;;;;5055540;28;20077;-71
2022/09/06 09:28:13;;;;;;;9.80;3.90;;;43.10;61.90;;;;;;5055287;28;20181;-71
2022/09/06 09:30:50;;;;;;;4.15;3.72;;;42.80;61.10;;;;;;5073283;28;20032;-71
2022/09/06 09:33:34;;;;;;;6.15;3.58;;;41.20;61.70;;;;;;5073424;28;20017;-71
2022/09/06 09:36:12;;;;;;;6.13;3.40;;;39.70;63.90;;;;;;5055308;28;20032;-71
2022/09/06 09:38:45;;;;;;;5.43;3.10;;;40.90;62.90;;;;;;5073485;28;20064;-71
2022/09/06 09:41:26;;;;;;;6.95;3.38;;;41.20;61.80;;;;;;5073213;28;20028;-72
2022/09/06 09:43:59;;;;;;;6.53;3.45;;;41.10;61.80;;;;;;5073677;28;20075;-72
2022/09/06 09:46:24;;;;;;;5.80;3.28;;;40.30;62.10;;;;;;5054950;28;20025;-72
2022/09/06 09:49:06;;;;;;;7.18;3.13;;;40.00;62.40;;;;;;5072917;28;20028;-71
2022/09/06 09:51:37;;;;;;;5.97;3.40;;;39.90;62.90;;;;;;5073129;28;20021;-71
2022/09/06 09:54:08;;;;;;;7.05;3.45;;;38.90;63.80;;;;;;5073340;28;20158;-71
2022/09/06 09:56:39;;;;;;;6.35;3.58;;;38.50;64.30;;;;;;5055147;28;20031;-71
2022/09/06 09:59:35;;;;;;;5.35;3.17;;;38.30;64.70;;;;;;5073174;28;20107;-71
2022/09/06 10:02:14;;;;;;;9.68;3.97;;;37.20;66.00;;;;;;5073196;28;20025;-72
2022/09/06 10:04:50;;;;;;;8.93;3.85;;;36.90;66.80;;;;;;5073202;28;20461;-72
2022/09/06 10:07:22;;;;;;;5.93;3.85;;;37.50;66.60;;;;;;5055024;28;20029;-71
2022/09/06 10:10:04;;;;;;;9.75;3.92;;;36.00;68.60;;;;;;5055234;28;20056;-71
2022/09/06 10:12:37;;;;;;;8.88;3.58;;;35.10;70.50;;;;;;5073368;28;20046;-71
2022/09/06 10:15:04;;;;;;;9.07;3.97;;;34.20;72.40;;;;;;5072753;28;20021;-71
2022/09/06 10:17:33;;;;;;;6.40;3.80;;;34.20;72.80;;;;;;5072276;28;20033;-71
2022/09/06 10:20:08;;;;;;;8.10;3.88;;;34.50;72.90;;;;;;5054621;28;20078;-72
2022/09/06 10:23:00;;;;;;;6.50;3.88;;;34.50;73.00;;;;;;5054737;28;20025;-72
2022/09/06 10:25:39;;;;;;;8.70;3.33;;;34.50;73.90;;;;;;5009613;28;20389;-72
2022/09/06 10:28:20;;;;;;;8.77;3.67;;;35.60;72.50;;;;;;5072562;28;20481;-72
2022/09/06 10:31:04;;;;;;;18.23;4.40;;;35.50;71.70;;;;;;5073069;28;20025;-71
2022/09/06 10:34:02;;;;;;;10.10;4.60;;;35.90;72.00;;;;;;5072529;28;20020;-71
2022/09/06 10:36:35;;;;;;;9.50;3.95;;;37.30;70.60;;;;;;5054718;28;20052;-71
2022/09/06 10:39:33;;;;;;;8.75;3.65;;;39.00;69.00;;;;;;5073543;28;20101;-71
2022/09/06 10:42:18;;;;;;;10.30;3.67;;;39.90;67.00;;;;;;5072654;28;20036;-71
2022/09/06 10:44:57;;;;;;;10.20;3.92;;;40.70;65.00;;;;;;5054635;28;20389;-71
2022/09/06 10:47:34;;;;;;;9.30;3.50;;;40.20;65.10;;;;;;5054547;28;20119;-71
2022/09/06 10:50:01;;;;;;;11.60;3.40;;;39.60;65.50;;;;;;5054448;28;20021;-72
2022/09/06 10:52:33;;;;;;;8.63;3.78;;;38.80;66.60;;;;;;5072766;28;20032;-72
2022/09/06 10:55:03;;;;;;;7.88;3.25;;;38.20;67.70;;;;;;5072783;28;20489;-72
2022/09/06 10:57:45;;;;;;;7.35;3.15;;;37.00;69.10;;;;;;5072553;28;20029;-71
2022/09/06 11:00:12;;;;;;;11.07;4.32;;;38.10;67.50;;;;;;5072693;28;20104;-72
2022/09/06 11:02:39;;;;;;;10.13;3.75;;;38.20;67.20;;;;;;5054569;28;20035;-72
2022/09/06 11:05:10;;;;;;;8.02;3.00;;;38.60;67.00;;;;;;5054420;28;20028;-72
2022/09/06 11:07:45;;;;;;;10.13;3.70;;;37.90;67.50;;;;;;5054504;28;20032;-72
2022/09/06 11:10:23;;;;;;;6.57;3.20;;;35.50;70.20;;;;;;5072457;28;20017;-71
2022/09/06 11:13:09;;;;;;;10.10;3.90;;;33.70;72.80;;;;;;5072582;28;20047;-71
2022/09/06 11:15:58;;;;;;;10.50;4.35;;;32.40;76.10;;;;;;5072635;28;20420;-71
2022/09/06 11:18:31;;;;;;;11.20;3.47;;;30.90;78.70;;;;;;5056985;28;20051;-71
2022/09/06 11:20:59;;;;;;;12.25;3.20;;;30.10;81.60;;;;;;5054531;28;20070;-71
2022/09/06 11:23:47;;;;;;;9.43;3.40;;;29.60;83.10;;;;;;5073310;28;20035;-71
2022/09/06 11:26:21;;;;;;;11.68;3.50;;;29.00;84.80;;;;;;5054915;28;20056;-71
2022/09/06 11:28:59;;;;;;;8.77;3.22;;;28.70;86.40;;;;;;5076719;28;20021;-71
2022/09/06 11:31:31;;;;;;;6.43;2.95;;;28.50;87.90;;;;;;5084013;28;20031;-71
2022/09/06 11:34:09;;;;;;;12.75;3.08;;;28.50;88.20;;;;;;5077978;28;20472;-70
2022/09/06 11:36:47;;;;;;;12.20;2.97;;;28.40;87.90;;;;;;5075998;28;20025;-71
2022/09/06 11:39:22;;;;;;;10.13;2.85;;;28.60;87.00;;;;;;5076403;28;20032;-70
2022/09/06 11:41:48;;;;;;;9.53;3.13;;;28.70;87.00;;;;;;5076192;28;20036;-71
2022/09/06 11:44:48;;;;;;;9.25;2.72;;;28.70;87.80;;;;;;5058084;28;20025;-70
2022/09/06 11:47:52;;;;;;;9.82;2.58;;;28.60;87.30;;;;;;5075928;28;20025;-71
2022/09/06 11:50:20;;;;;;;8.50;2.67;;;28.40;86.90;;;;;;5075716;28;20021;-70
2022/09/06 11:53:17;;;;;;;9.65;3.13;;;28.40;86.50;;;;;;5058052;28;20483;-70
2022/09/06 11:56:07;;;;;;;7.72;2.97;;;28.60;86.70;;;;;;5057876;28;20052;-71
2022/09/06 11:58:38;;;;;;;9.23;2.95;;;28.60;86.40;;;;;;5013363;28;20449;-71
2022/09/06 12:01:27;;;;;;;8.25;2.90;;;28.60;86.50;;;;;;5075437;28;20024;-71
2022/09/06 12:03:54;;;;;;;10.32;3.40;;;28.70;86.80;;;;;;5044678;28;20029;-71
2022/09/06 12:06:25;;;;;;;5.43;2.42;;;28.70;87.00;;;;;;5079367;28;20035;-71
2022/09/06 12:08:52;;;;;;;7.30;2.70;;;28.40;86.90;;;;;;5081458;28;20025;-71
2022/09/06 12:11:33;;;;;;;7.32;2.30;;;28.20;86.90;;;;;;5062663;28;20042;-70
2022/09/06 12:14:02;;;;;;;7.88;2.58;;;28.30;87.70;;;;;;5076290;28;20020;-70
2022/09/06 12:16:52;;;;;;;10.45;2.67;;;28.20;88.10;;;;;;5075537;28;20017;-70
2022/09/06 12:19:47;;;;;;;6.80;2.42;;;27.90;87.40;;;;;;5075041;28;20032;-70
2022/09/06 12:22:25;;;;;;;8.40;2.47;;;28.00;87.60;;;;;;5075221;28;20024;-71
2022/09/06 12:24:53;;;;;;;7.05;2.60;;;28.20;87.30;;;;;;5074708;28;20020;-70
2022/09/06 12:27:49;;;;;;;9.57;2.55;;;28.40;87.10;;;;;;5074733;28;20024;-70
2022/09/06 12:30:44;;;;;;;8.32;2.97;;;28.70;86.80;;;;;;5057359;28;20060;-70
2022/09/06 12:33:16;;;;;;;6.93;2.50;;;28.80;85.80;;;;;;5057166;28;20464;-70
2022/09/06 12:35:42;;;;;;;6.97;2.10;;;28.60;85.90;;;;;;5075034;28;20028;-70
2022/09/06 12:38:14;;;;;;;5.25;2.90;;;28.50;86.40;;;;;;5056344;28;20036;-70
2022/09/06 12:40:45;;;;;;;6.97;2.47;;;28.60;85.70;;;;;;5056641;28;20025;-70
2022/09/06 12:43:13;;;;;;;9.00;2.30;;;28.80;85.80;;;;;;5075050;28;20020;-70
2022/09/06 12:45:43;;;;;;;5.30;2.25;;;28.90;85.50;;;;;;5075208;28;20509;-70
2022/09/06 12:48:14;;;;;;;9.45;2.70;;;29.20;85.70;;;;;;5076457;28;20031;-70
2022/09/06 12:50:40;;;;;;;8.35;3.45;;;29.40;83.60;;;;;;5077061;28;20017;-70
2022/09/06 12:53:25;;;;;;;8.30;2.75;;;29.40;83.80;;;;;;5060020;28;20024;-70
2022/09/06 12:56:06;;;;;;;6.78;2.10;;;29.50;83.30;;;;;;5062235;28;20043;-70
2022/09/06 12:58:31;;;;;;;9.32;4.35;;;29.30;82.70;;;;;;5078226;28;20062;-70
2022/09/06 13:01:08;;;;;;;19.63;9.27;;;29.30;83.60;;;;;;5076317;28;20028;-70
2022/09/06 13:03:44;;;;;;;11.13;3.47;;;29.40;83.70;;;;;;5075534;28;20024;-70
2022/09/06 13:06:18;;;;;;;7.50;2.53;;;29.50;83.90;;;;;;5074852;28;20088;-70
2022/09/06 13:08:48;;;;;;;8.55;2.70;;;29.40;82.50;;;;;;5058508;28;20032;-71
2022/09/06 13:11:19;;;;;;;5.72;2.20;;;29.30;82.70;;;;;;5059954;28;20073;-71